createdAt,value
2018-04-11T00:00:09.386Z,6.437376
2018-04-11T00:00:21.574Z,12.874752
2018-04-11T00:00:33.774Z,12.874752
2018-04-11T00:00:45.952Z,12.874752
2018-04-11T00:00:58.120Z,12.874752
2018-04-11T00:01:10.309Z,11.265408
2018-04-11T00:01:22.479Z,11.265408
2018-04-11T00:01:34.699Z,11.265408
2018-04-11T00:01:46.874Z,11.265408
2018-04-11T00:01:59.068Z,11.265408
2018-04-11T00:02:11.238Z,4.828032
2018-04-11T00:02:23.403Z,4.828032
2018-04-11T00:02:35.609Z,6.437376
2018-04-11T00:02:47.787Z,6.437376
2018-04-11T00:02:59.958Z,6.437376
2018-04-11T00:03:12.120Z,8.04672
2018-04-11T00:03:24.288Z,9.656064
2018-04-11T00:03:36.486Z,9.656064
2018-04-11T00:03:48.642Z,9.656064
2018-04-11T00:04:00.807Z,9.656064
2018-04-11T00:04:12.978Z,3.218688
2018-04-11T00:04:25.153Z,9.656064
2018-04-11T00:04:37.313Z,9.656064
2018-04-11T00:04:49.477Z,9.656064
2018-04-11T00:05:01.671Z,9.656064
2018-04-11T00:05:13.869Z,6.437376
2018-04-11T00:05:26.023Z,6.437376
2018-04-11T00:05:38.191Z,6.437376
2018-04-11T00:05:50.347Z,6.437376
2018-04-11T00:06:02.490Z,8.04672
2018-04-11T00:06:14.662Z,6.437376
2018-04-11T00:06:26.813Z,6.437376
2018-04-11T00:06:38.978Z,6.437376
2018-04-11T00:06:51.140Z,6.437376
2018-04-11T00:07:03.345Z,6.437376
2018-04-11T00:07:15.686Z,3.218688
2018-04-11T00:07:28.057Z,3.218688
2018-04-11T00:07:40.207Z,4.828032
2018-04-11T00:07:52.365Z,9.656064
2018-04-11T00:08:04.535Z,4.828032
2018-04-11T00:08:16.693Z,8.04672
2018-04-11T00:08:28.867Z,8.04672
2018-04-11T00:08:41.025Z,8.04672
2018-04-11T00:08:53.174Z,8.04672
2018-04-11T00:09:05.342Z,8.04672
2018-04-11T00:09:17.509Z,11.265408
2018-04-11T00:09:29.648Z,11.265408
2018-04-11T00:09:41.798Z,11.265408
2018-04-11T00:09:53.944Z,12.874752
2018-04-11T00:10:06.125Z,9.656064
2018-04-11T00:10:18.340Z,9.656064
2018-04-11T00:10:30.544Z,9.656064
2018-04-11T00:10:42.740Z,9.656064
2018-04-11T00:10:54.899Z,9.656064
2018-04-11T00:11:07.070Z,3.218688
2018-04-11T00:11:19.280Z,3.218688
2018-04-11T00:11:31.431Z,8.04672
2018-04-11T00:11:43.586Z,8.04672
2018-04-11T00:11:55.734Z,8.04672
2018-04-11T00:12:07.906Z,3.218688
2018-04-11T00:12:20.102Z,4.828032
2018-04-11T00:12:32.307Z,6.437376
2018-04-11T00:12:44.525Z,6.437376
2018-04-11T00:12:56.829Z,6.437376
2018-04-11T00:13:09.350Z,3.218688
2018-04-11T00:13:21.509Z,3.218688
2018-04-11T00:13:33.703Z,3.218688
2018-04-11T00:13:45.854Z,11.265408
2018-04-11T00:13:58.013Z,11.265408
2018-04-11T00:14:10.194Z,3.218688
2018-04-11T00:14:22.369Z,3.218688
2018-04-11T00:14:34.682Z,3.218688
2018-04-11T00:14:46.857Z,3.218688
2018-04-11T00:14:59.108Z,3.218688
2018-04-11T00:15:11.277Z,3.218688
2018-04-11T00:15:23.435Z,3.218688
2018-04-11T00:15:35.594Z,3.218688
2018-04-11T00:15:47.751Z,4.828032
2018-04-11T00:15:59.919Z,4.828032
2018-04-11T00:16:12.073Z,3.218688
2018-04-11T00:16:24.250Z,3.218688
2018-04-11T00:16:36.429Z,3.218688
2018-04-11T00:16:48.850Z,3.218688
2018-04-11T00:17:01.025Z,3.218688
2018-04-11T00:17:13.181Z,1.609344
2018-04-11T00:17:25.421Z,1.609344
2018-04-11T00:17:37.585Z,3.218688
2018-04-11T00:17:49.749Z,3.218688
2018-04-11T00:18:02.040Z,3.218688
2018-04-11T00:18:14.204Z,4.828032
2018-04-11T00:18:26.367Z,8.04672
2018-04-11T00:18:38.525Z,8.04672
2018-04-11T00:18:50.701Z,8.04672
2018-04-11T00:19:02.853Z,8.04672
2018-04-11T00:19:15.018Z,8.04672
2018-04-11T00:19:27.183Z,8.04672
2018-04-11T00:19:39.342Z,8.04672
2018-04-11T00:19:51.500Z,8.04672
2018-04-11T00:20:03.722Z,8.04672
2018-04-11T00:20:15.877Z,8.04672
2018-04-11T00:20:28.052Z,8.04672
2018-04-11T00:20:40.228Z,8.04672
2018-04-11T00:20:52.373Z,8.04672
2018-04-11T00:21:04.623Z,3.218688
2018-04-11T00:21:16.794Z,4.828032
2018-04-11T00:21:28.964Z,4.828032
2018-04-11T00:21:41.134Z,6.437376
2018-04-11T00:21:53.322Z,6.437376
2018-04-11T00:22:05.483Z,1.609344
2018-04-11T00:22:17.642Z,6.437376
2018-04-11T00:22:29.838Z,6.437376
2018-04-11T00:22:42.023Z,6.437376
2018-04-11T00:22:54.286Z,6.437376
2018-04-11T00:23:06.497Z,1.609344
2018-04-11T00:23:18.710Z,3.218688
2018-04-11T00:23:30.884Z,4.828032
2018-04-11T00:23:43.066Z,4.828032
2018-04-11T00:23:55.215Z,6.437376
2018-04-11T00:24:07.374Z,6.437376
2018-04-11T00:24:19.521Z,8.04672
2018-04-11T00:24:31.692Z,8.04672
2018-04-11T00:24:43.856Z,8.04672
2018-04-11T00:24:56.021Z,8.04672
2018-04-11T00:25:08.195Z,1.609344
2018-04-11T00:25:20.351Z,6.437376
2018-04-11T00:25:32.514Z,6.437376
2018-04-11T00:25:44.680Z,6.437376
2018-04-11T00:25:56.868Z,6.437376
2018-04-11T00:26:09.025Z,6.437376
2018-04-11T00:26:21.185Z,8.04672
2018-04-11T00:26:33.407Z,8.04672
2018-04-11T00:26:45.573Z,8.04672
2018-04-11T00:26:57.753Z,8.04672
2018-04-11T00:27:09.913Z,11.265408
2018-04-11T00:27:22.077Z,11.265408
2018-04-11T00:27:34.278Z,11.265408
2018-04-11T00:27:46.446Z,11.265408
2018-04-11T00:27:58.615Z,11.265408
2018-04-11T00:28:10.814Z,6.437376
2018-04-11T00:28:23.000Z,8.04672
2018-04-11T00:28:35.164Z,8.04672
2018-04-11T00:28:47.329Z,8.04672
2018-04-11T00:28:59.542Z,8.04672
2018-04-11T00:29:11.718Z,4.828032
2018-04-11T00:29:23.907Z,6.437376
2018-04-11T00:29:36.066Z,6.437376
2018-04-11T00:29:48.229Z,6.437376
2018-04-11T00:30:00.433Z,6.437376
2018-04-11T00:30:12.601Z,4.828032
2018-04-11T00:30:24.779Z,4.828032
2018-04-11T00:30:36.938Z,4.828032
2018-04-11T00:30:49.168Z,4.828032
2018-04-11T00:31:01.361Z,4.828032
2018-04-11T00:31:13.510Z,1.609344
2018-04-11T00:31:25.708Z,3.218688
2018-04-11T00:31:37.866Z,3.218688
2018-04-11T00:31:50.043Z,3.218688
2018-04-11T00:32:02.211Z,3.218688
2018-04-11T00:32:14.386Z,3.218688
2018-04-11T00:32:26.547Z,6.437376
2018-04-11T00:32:38.718Z,6.437376
2018-04-11T00:32:50.877Z,8.04672
2018-04-11T00:33:03.048Z,8.04672
2018-04-11T00:33:15.217Z,3.218688
2018-04-11T00:33:27.398Z,3.218688
2018-04-11T00:33:39.551Z,3.218688
2018-04-11T00:33:51.764Z,8.04672
2018-04-11T00:34:03.948Z,4.828032
2018-04-11T00:34:16.248Z,6.437376
2018-04-11T00:34:28.394Z,6.437376
2018-04-11T00:34:40.575Z,6.437376
2018-04-11T00:34:52.732Z,6.437376
2018-04-11T00:35:04.901Z,1.609344
2018-04-11T00:35:17.071Z,6.437376
2018-04-11T00:35:29.244Z,6.437376
2018-04-11T00:35:41.464Z,6.437376
2018-04-11T00:35:53.630Z,6.437376
2018-04-11T00:36:05.810Z,6.437376
2018-04-11T00:36:18.014Z,6.437376
2018-04-11T00:36:30.165Z,8.04672
2018-04-11T00:36:42.336Z,8.04672
2018-04-11T00:36:54.510Z,8.04672
2018-04-11T00:37:06.692Z,6.437376
2018-04-11T00:37:18.877Z,8.04672
2018-04-11T00:37:31.068Z,8.04672
2018-04-11T00:37:43.249Z,8.04672
2018-04-11T00:37:55.419Z,8.04672
2018-04-11T00:38:07.596Z,1.609344
2018-04-11T00:38:19.771Z,1.609344
2018-04-11T00:38:32.065Z,3.218688
2018-04-11T00:38:44.233Z,11.265408
2018-04-11T00:38:56.400Z,11.265408
2018-04-11T00:39:08.609Z,1.609344
2018-04-11T00:39:20.777Z,3.218688
2018-04-11T00:39:32.937Z,4.828032
2018-04-11T00:39:45.111Z,8.04672
2018-04-11T00:39:57.283Z,8.04672
2018-04-11T00:40:09.442Z,1.609344
2018-04-11T00:40:21.627Z,3.218688
2018-04-11T00:40:33.806Z,3.218688
2018-04-11T00:40:45.954Z,3.218688
2018-04-11T00:40:58.133Z,3.218688
2018-04-11T00:41:10.303Z,6.437376
2018-04-11T00:41:22.458Z,6.437376
2018-04-11T00:41:34.627Z,6.437376
2018-04-11T00:41:46.815Z,6.437376
2018-04-11T00:41:58.995Z,6.437376
2018-04-11T00:42:11.149Z,6.437376
2018-04-11T00:42:23.329Z,8.04672
2018-04-11T00:42:35.511Z,8.04672
2018-04-11T00:42:47.679Z,8.04672
2018-04-11T00:42:59.834Z,8.04672
2018-04-11T00:43:12.023Z,4.828032
2018-04-11T00:43:24.206Z,9.656064
2018-04-11T00:43:36.373Z,9.656064
2018-04-11T00:43:48.550Z,9.656064
2018-04-11T00:44:00.721Z,9.656064
2018-04-11T00:44:12.880Z,8.04672
2018-04-11T00:44:25.060Z,8.04672
2018-04-11T00:44:37.208Z,8.04672
2018-04-11T00:44:49.380Z,8.04672
2018-04-11T00:45:01.536Z,11.265408
2018-04-11T00:45:13.693Z,11.265408
2018-04-11T00:45:25.862Z,11.265408
2018-04-11T00:45:38.064Z,11.265408
2018-04-11T00:45:50.243Z,11.265408
2018-04-11T00:46:02.412Z,11.265408
2018-04-11T00:46:14.598Z,6.437376
2018-04-11T00:46:27.049Z,6.437376
2018-04-11T00:46:39.306Z,6.437376
2018-04-11T00:46:51.463Z,6.437376
2018-04-11T00:47:03.636Z,6.437376
2018-04-11T00:47:15.784Z,1.609344
2018-04-11T00:47:27.929Z,1.609344
2018-04-11T00:47:40.110Z,3.218688
2018-04-11T00:47:52.259Z,4.828032
2018-04-11T00:48:04.550Z,6.437376
2018-04-11T00:48:16.688Z,6.437376
2018-04-11T00:48:28.846Z,6.437376
2018-04-11T00:48:41.016Z,6.437376
2018-04-11T00:48:53.227Z,6.437376
2018-04-11T00:49:05.394Z,3.218688
2018-04-11T00:49:17.572Z,4.828032
2018-04-11T00:49:29.779Z,8.04672
2018-04-11T00:49:42.070Z,8.04672
2018-04-11T00:49:54.247Z,8.04672
2018-04-11T00:50:06.429Z,1.609344
2018-04-11T00:50:18.597Z,1.609344
2018-04-11T00:50:30.762Z,1.609344
2018-04-11T00:50:42.926Z,1.609344
2018-04-11T00:50:55.078Z,3.218688
2018-04-11T00:51:07.230Z,3.218688
2018-04-11T00:51:19.656Z,3.218688
2018-04-11T00:51:31.975Z,3.218688
2018-04-11T00:51:44.122Z,6.437376
2018-04-11T00:51:56.299Z,8.04672
2018-04-11T00:52:08.472Z,8.04672
2018-04-11T00:52:20.643Z,8.04672
2018-04-11T00:52:32.805Z,9.656064
2018-04-11T00:52:44.993Z,9.656064
2018-04-11T00:52:57.159Z,9.656064
2018-04-11T00:53:09.310Z,8.04672
2018-04-11T00:53:21.480Z,8.04672
2018-04-11T00:53:33.671Z,9.656064
2018-04-11T00:53:45.842Z,9.656064
2018-04-11T00:53:58.047Z,9.656064
2018-04-11T00:54:10.228Z,9.656064
2018-04-11T00:54:22.373Z,11.265408
2018-04-11T00:54:34.531Z,11.265408
2018-04-11T00:54:46.702Z,11.265408
2018-04-11T00:54:58.869Z,11.265408
2018-04-11T00:55:11.032Z,4.828032
2018-04-11T00:55:23.191Z,8.04672
2018-04-11T00:55:35.428Z,8.04672
2018-04-11T00:55:47.595Z,8.04672
2018-04-11T00:55:59.781Z,8.04672
2018-04-11T00:56:11.953Z,9.656064
2018-04-11T00:56:24.113Z,9.656064
2018-04-11T00:56:36.447Z,9.656064
2018-04-11T00:56:48.611Z,9.656064
2018-04-11T00:57:00.774Z,9.656064
2018-04-11T00:57:12.939Z,4.828032
2018-04-11T00:57:25.161Z,4.828032
2018-04-11T00:57:37.315Z,4.828032
2018-04-11T00:57:49.494Z,9.656064
2018-04-11T00:58:01.651Z,14.484096
2018-04-11T00:58:13.809Z,12.874752
2018-04-11T00:58:25.969Z,12.874752
2018-04-11T00:58:38.146Z,12.874752
2018-04-11T00:58:50.354Z,12.874752
2018-04-11T00:59:02.533Z,12.874752
2018-04-11T00:59:14.686Z,6.437376
2018-04-11T00:59:26.864Z,6.437376
2018-04-11T00:59:39.019Z,6.437376
2018-04-11T00:59:51.194Z,6.437376
2018-04-11T01:00:03.350Z,6.437376
2018-04-11T01:00:15.561Z,1.609344
2018-04-11T01:00:27.764Z,3.218688
2018-04-11T01:00:39.962Z,3.218688
2018-04-11T01:00:52.147Z,3.218688
2018-04-11T01:01:04.331Z,3.218688
2018-04-11T01:01:16.699Z,4.828032
2018-04-11T01:01:28.896Z,6.437376
2018-04-11T01:01:41.069Z,8.04672
2018-04-11T01:01:53.242Z,8.04672
2018-04-11T01:02:05.409Z,3.218688
2018-04-11T01:02:17.589Z,8.04672
2018-04-11T01:02:29.766Z,8.04672
2018-04-11T01:02:41.942Z,8.04672
2018-04-11T01:02:54.119Z,8.04672
2018-04-11T01:03:06.333Z,6.437376
2018-04-11T01:03:18.506Z,6.437376
2018-04-11T01:03:30.676Z,6.437376
2018-04-11T01:03:42.852Z,6.437376
2018-04-11T01:03:55.020Z,8.04672
2018-04-11T01:04:07.191Z,9.656064
2018-04-11T01:04:19.364Z,9.656064
2018-04-11T01:04:31.561Z,9.656064
2018-04-11T01:04:43.750Z,9.656064
2018-04-11T01:04:56.253Z,9.656064
2018-04-11T01:05:08.436Z,6.437376
2018-04-11T01:05:20.627Z,6.437376
2018-04-11T01:05:32.866Z,6.437376
2018-04-11T01:05:45.023Z,6.437376
2018-04-11T01:05:57.179Z,8.04672
2018-04-11T01:06:09.371Z,8.04672
2018-04-11T01:06:21.534Z,9.656064
2018-04-11T01:06:33.704Z,9.656064
2018-04-11T01:06:45.880Z,9.656064
2018-04-11T01:06:58.057Z,9.656064
2018-04-11T01:07:10.235Z,11.265408
2018-04-11T01:07:22.392Z,11.265408
2018-04-11T01:07:34.542Z,11.265408
2018-04-11T01:07:46.702Z,11.265408
2018-04-11T01:07:58.851Z,11.265408
2018-04-11T01:08:11.039Z,3.218688
2018-04-11T01:08:23.261Z,3.218688
2018-04-11T01:08:35.428Z,3.218688
2018-04-11T01:08:47.592Z,3.218688
2018-04-11T01:08:59.809Z,3.218688
2018-04-11T01:09:11.967Z,4.828032
2018-04-11T01:09:24.132Z,4.828032
2018-04-11T01:09:36.331Z,4.828032
2018-04-11T01:09:48.480Z,6.437376
2018-04-11T01:10:00.687Z,8.04672
2018-04-11T01:10:12.862Z,3.218688
2018-04-11T01:10:25.034Z,4.828032
2018-04-11T01:10:37.239Z,4.828032
2018-04-11T01:10:49.403Z,4.828032
2018-04-11T01:11:01.585Z,4.828032
2018-04-11T01:11:13.759Z,6.437376
2018-04-11T01:11:25.948Z,8.04672
2018-04-11T01:11:38.108Z,8.04672
2018-04-11T01:11:50.303Z,8.04672
2018-04-11T01:12:02.455Z,8.04672
2018-04-11T01:12:14.712Z,8.04672
2018-04-11T01:12:26.871Z,8.04672
2018-04-11T01:12:39.018Z,9.656064
2018-04-11T01:12:51.190Z,9.656064
2018-04-11T01:13:03.900Z,9.656064
2018-04-11T01:13:16.307Z,9.656064
2018-04-11T01:13:28.511Z,9.656064
2018-04-11T01:13:40.688Z,9.656064
2018-04-11T01:13:52.867Z,9.656064
2018-04-11T01:14:05.008Z,1.609344
2018-04-11T01:14:17.182Z,1.609344
2018-04-11T01:14:29.345Z,3.218688
2018-04-11T01:14:41.486Z,6.437376
2018-04-11T01:14:53.667Z,6.437376
2018-04-11T01:15:05.831Z,3.218688
2018-04-11T01:15:18.018Z,6.437376
2018-04-11T01:15:30.174Z,11.265408
2018-04-11T01:15:42.336Z,12.874752
2018-04-11T01:15:54.479Z,12.874752
2018-04-11T01:16:06.644Z,9.656064
2018-04-11T01:16:18.808Z,9.656064
2018-04-11T01:16:30.983Z,9.656064
2018-04-11T01:16:43.472Z,9.656064
2018-04-11T01:16:55.631Z,9.656064
2018-04-11T01:17:07.798Z,6.437376
2018-04-11T01:17:19.983Z,8.04672
2018-04-11T01:17:32.134Z,8.04672
2018-04-11T01:17:44.286Z,11.265408
2018-04-11T01:17:56.644Z,12.874752
2018-04-11T01:18:08.850Z,11.265408
2018-04-11T01:18:21.010Z,11.265408
2018-04-11T01:18:33.151Z,11.265408
2018-04-11T01:18:45.344Z,11.265408
2018-04-11T01:18:57.506Z,11.265408
2018-04-11T01:19:09.695Z,12.874752
2018-04-11T01:19:21.854Z,12.874752
2018-04-11T01:19:34.032Z,12.874752
2018-04-11T01:19:46.194Z,12.874752
2018-04-11T01:19:58.360Z,12.874752
2018-04-11T01:20:10.583Z,16.09344
2018-04-11T01:20:22.764Z,16.09344
2018-04-11T01:20:34.918Z,16.09344
2018-04-11T01:20:47.116Z,16.09344
2018-04-11T01:20:59.273Z,16.09344
2018-04-11T01:21:11.447Z,9.656064
2018-04-11T01:21:23.627Z,9.656064
2018-04-11T01:21:35.797Z,9.656064
2018-04-11T01:21:47.967Z,9.656064
2018-04-11T01:22:00.133Z,9.656064
2018-04-11T01:22:12.328Z,6.437376
2018-04-11T01:22:25.003Z,11.265408
2018-04-11T01:22:37.173Z,11.265408
2018-04-11T01:22:49.346Z,11.265408
2018-04-11T01:23:01.558Z,11.265408
2018-04-11T01:23:13.735Z,6.437376
2018-04-11T01:23:25.898Z,8.04672
2018-04-11T01:23:38.070Z,8.04672
2018-04-11T01:23:50.233Z,9.656064
2018-04-11T01:24:02.415Z,9.656064
2018-04-11T01:24:14.587Z,9.656064
2018-04-11T01:24:26.788Z,9.656064
2018-04-11T01:24:38.945Z,9.656064
2018-04-11T01:24:51.118Z,9.656064
2018-04-11T01:25:03.274Z,11.265408
2018-04-11T01:25:15.425Z,12.874752
2018-04-11T01:25:27.576Z,14.484096
2018-04-11T01:25:39.745Z,14.484096
2018-04-11T01:25:51.923Z,14.484096
2018-04-11T01:26:04.093Z,8.04672
2018-04-11T01:26:16.250Z,9.656064
2018-04-11T01:26:28.433Z,9.656064
2018-04-11T01:26:40.605Z,9.656064
2018-04-11T01:26:52.768Z,9.656064
2018-04-11T01:27:04.938Z,6.437376
2018-04-11T01:27:17.108Z,8.04672
2018-04-11T01:27:29.263Z,8.04672
2018-04-11T01:27:41.437Z,8.04672
2018-04-11T01:27:53.597Z,9.656064
2018-04-11T01:28:05.839Z,8.04672
2018-04-11T01:28:17.998Z,14.484096
2018-04-11T01:28:30.155Z,14.484096
2018-04-11T01:28:42.359Z,14.484096
2018-04-11T01:28:54.521Z,14.484096
2018-04-11T01:29:06.704Z,8.04672
2018-04-11T01:29:18.871Z,11.265408
2018-04-11T01:29:31.028Z,14.484096
2018-04-11T01:29:43.190Z,14.484096
2018-04-11T01:29:55.331Z,14.484096
2018-04-11T01:30:07.496Z,3.218688
2018-04-11T01:30:19.632Z,8.04672
2018-04-11T01:30:31.790Z,8.04672
2018-04-11T01:30:44.139Z,8.04672
2018-04-11T01:30:56.522Z,12.874752
2018-04-11T01:31:08.730Z,8.04672
2018-04-11T01:31:20.880Z,8.04672
2018-04-11T01:31:33.031Z,8.04672
2018-04-11T01:31:45.210Z,9.656064
2018-04-11T01:31:57.383Z,11.265408
2018-04-11T01:32:09.608Z,9.656064
2018-04-11T01:32:21.791Z,9.656064
2018-04-11T01:32:33.967Z,9.656064
2018-04-11T01:32:46.126Z,9.656064
2018-04-11T01:32:58.304Z,9.656064
2018-04-11T01:33:10.502Z,1.609344
2018-04-11T01:33:22.654Z,8.04672
2018-04-11T01:33:34.814Z,9.656064
2018-04-11T01:33:46.993Z,9.656064
2018-04-11T01:33:59.176Z,9.656064
2018-04-11T01:34:11.339Z,3.218688
2018-04-11T01:34:23.921Z,3.218688
2018-04-11T01:34:36.091Z,3.218688
2018-04-11T01:34:48.257Z,6.437376
2018-04-11T01:35:00.483Z,6.437376
2018-04-11T01:35:12.648Z,6.437376
2018-04-11T01:35:24.871Z,8.04672
2018-04-11T01:35:37.015Z,12.874752
2018-04-11T01:35:49.173Z,12.874752
2018-04-11T01:36:01.316Z,12.874752
2018-04-11T01:36:13.487Z,9.656064
2018-04-11T01:36:25.644Z,9.656064
2018-04-11T01:36:37.800Z,9.656064
2018-04-11T01:36:49.971Z,9.656064
2018-04-11T01:37:02.155Z,9.656064
2018-04-11T01:37:14.322Z,9.656064
2018-04-11T01:37:26.484Z,16.09344
2018-04-11T01:37:38.649Z,16.09344
2018-04-11T01:37:50.806Z,16.09344
2018-04-11T01:38:02.977Z,16.09344
2018-04-11T01:38:15.190Z,8.04672
2018-04-11T01:38:27.578Z,8.04672
2018-04-11T01:38:39.730Z,8.04672
2018-04-11T01:38:51.879Z,8.04672
2018-04-11T01:39:04.044Z,1.609344
2018-04-11T01:39:16.200Z,1.609344
2018-04-11T01:39:28.361Z,3.218688
2018-04-11T01:39:40.522Z,3.218688
2018-04-11T01:39:52.704Z,3.218688
2018-04-11T01:40:04.876Z,8.04672
2018-04-11T01:40:17.036Z,8.04672
2018-04-11T01:40:29.186Z,8.04672
2018-04-11T01:40:41.344Z,8.04672
2018-04-11T01:40:53.503Z,8.04672
2018-04-11T01:41:05.704Z,3.218688
2018-04-11T01:41:17.869Z,6.437376
2018-04-11T01:41:30.040Z,9.656064
2018-04-11T01:41:42.184Z,11.265408
2018-04-11T01:41:54.345Z,11.265408
2018-04-11T01:42:06.497Z,6.437376
2018-04-11T01:42:18.642Z,8.04672
2018-04-11T01:42:30.799Z,12.874752
2018-04-11T01:42:42.964Z,12.874752
2018-04-11T01:42:55.124Z,12.874752
2018-04-11T01:43:07.275Z,11.265408
2018-04-11T01:43:19.425Z,12.874752
2018-04-11T01:43:31.612Z,12.874752
2018-04-11T01:43:43.786Z,12.874752
2018-04-11T01:43:55.955Z,12.874752
2018-04-11T01:44:08.113Z,6.437376
2018-04-11T01:44:20.259Z,8.04672
2018-04-11T01:44:32.440Z,8.04672
2018-04-11T01:44:44.659Z,11.265408
2018-04-11T01:44:56.816Z,11.265408
2018-04-11T01:45:08.979Z,4.828032
2018-04-11T01:45:21.144Z,8.04672
2018-04-11T01:45:33.294Z,9.656064
2018-04-11T01:45:45.462Z,9.656064
2018-04-11T01:45:57.620Z,9.656064
2018-04-11T01:46:09.842Z,8.04672
2018-04-11T01:46:21.997Z,8.04672
2018-04-11T01:46:34.157Z,8.04672
2018-04-11T01:46:46.345Z,8.04672
2018-04-11T01:46:58.515Z,8.04672
2018-04-11T01:47:10.676Z,3.218688
2018-04-11T01:47:22.841Z,6.437376
2018-04-11T01:47:35.114Z,6.437376
2018-04-11T01:47:47.280Z,6.437376
2018-04-11T01:47:59.429Z,6.437376
2018-04-11T01:48:11.747Z,6.437376
2018-04-11T01:48:23.902Z,6.437376
2018-04-11T01:48:36.065Z,6.437376
2018-04-11T01:48:48.229Z,6.437376
2018-04-11T01:49:00.388Z,6.437376
2018-04-11T01:49:12.549Z,9.656064
2018-04-11T01:49:24.737Z,9.656064
2018-04-11T01:49:37.030Z,9.656064
2018-04-11T01:49:49.191Z,9.656064
2018-04-11T01:50:01.365Z,11.265408
2018-04-11T01:50:13.534Z,8.04672
2018-04-11T01:50:25.686Z,8.04672
2018-04-11T01:50:37.871Z,9.656064
2018-04-11T01:50:50.035Z,9.656064
2018-04-11T01:51:02.219Z,9.656064
2018-04-11T01:51:14.376Z,9.656064
2018-04-11T01:51:26.700Z,9.656064
2018-04-11T01:51:38.867Z,9.656064
2018-04-11T01:51:51.040Z,9.656064
2018-04-11T01:52:03.237Z,9.656064
2018-04-11T01:52:15.423Z,6.437376
2018-04-11T01:52:27.598Z,6.437376
2018-04-11T01:52:39.787Z,6.437376
2018-04-11T01:52:51.946Z,6.437376
2018-04-11T01:53:04.108Z,6.437376
2018-04-11T01:53:16.266Z,6.437376
2018-04-11T01:53:28.472Z,6.437376
2018-04-11T01:53:40.626Z,6.437376
2018-04-11T01:53:52.833Z,6.437376
2018-04-11T01:54:05.007Z,3.218688
2018-04-11T01:54:17.183Z,3.218688
2018-04-11T01:54:29.349Z,3.218688
2018-04-11T01:54:41.515Z,3.218688
2018-04-11T01:54:53.671Z,3.218688
2018-04-11T01:55:05.845Z,3.218688
2018-04-11T01:55:18.037Z,3.218688
2018-04-11T01:55:30.213Z,4.828032
2018-04-11T01:55:42.377Z,6.437376
2018-04-11T01:55:54.591Z,6.437376
2018-04-11T01:56:06.753Z,8.04672
2018-04-11T01:56:18.936Z,8.04672
2018-04-11T01:56:31.124Z,8.04672
2018-04-11T01:56:43.274Z,9.656064
2018-04-11T01:56:55.581Z,9.656064
2018-04-11T01:57:07.733Z,3.218688
2018-04-11T01:57:19.927Z,3.218688
2018-04-11T01:57:32.123Z,6.437376
2018-04-11T01:57:44.291Z,8.04672
2018-04-11T01:57:56.454Z,8.04672
2018-04-11T01:58:08.610Z,6.437376
2018-04-11T01:58:20.754Z,6.437376
2018-04-11T01:58:32.887Z,6.437376
2018-04-11T01:58:45.043Z,6.437376
2018-04-11T01:58:57.192Z,6.437376
2018-04-11T01:59:09.373Z,1.609344
2018-04-11T01:59:21.522Z,1.609344
2018-04-11T01:59:33.715Z,1.609344
2018-04-11T01:59:45.876Z,3.218688
2018-04-11T01:59:58.048Z,3.218688
2018-04-11T02:00:10.202Z,4.828032
2018-04-11T02:00:22.424Z,6.437376
2018-04-11T02:00:34.621Z,6.437376
2018-04-11T02:00:46.839Z,6.437376
2018-04-11T02:00:59.024Z,6.437376
2018-04-11T02:01:11.231Z,3.218688
2018-04-11T02:01:23.416Z,4.828032
2018-04-11T02:01:35.617Z,6.437376
2018-04-11T02:01:47.779Z,6.437376
2018-04-11T02:01:59.929Z,6.437376
2018-04-11T02:02:12.150Z,3.218688
2018-04-11T02:02:24.353Z,4.828032
2018-04-11T02:02:36.554Z,8.04672
2018-04-11T02:02:48.708Z,8.04672
2018-04-11T02:03:00.929Z,8.04672
2018-04-11T02:03:13.095Z,6.437376
2018-04-11T02:03:25.259Z,6.437376
2018-04-11T02:03:37.442Z,6.437376
2018-04-11T02:03:49.614Z,6.437376
2018-04-11T02:04:01.798Z,6.437376
2018-04-11T02:04:13.959Z,4.828032
2018-04-11T02:04:26.173Z,4.828032
2018-04-11T02:04:38.390Z,4.828032
2018-04-11T02:04:50.603Z,4.828032
2018-04-11T02:05:02.782Z,4.828032
2018-04-11T02:05:14.960Z,3.218688
2018-04-11T02:05:27.185Z,6.437376
2018-04-11T02:05:39.340Z,6.437376
2018-04-11T02:05:51.504Z,6.437376
2018-04-11T02:06:03.677Z,6.437376
2018-04-11T02:06:15.867Z,6.437376
2018-04-11T02:06:28.111Z,8.04672
2018-04-11T02:06:40.306Z,8.04672
2018-04-11T02:06:52.469Z,8.04672
2018-04-11T02:07:04.625Z,3.218688
2018-04-11T02:07:16.790Z,6.437376
2018-04-11T02:07:28.933Z,6.437376
2018-04-11T02:07:41.172Z,6.437376
2018-04-11T02:07:53.337Z,6.437376
2018-04-11T02:08:05.495Z,3.218688
2018-04-11T02:08:17.661Z,3.218688
2018-04-11T02:08:29.802Z,3.218688
2018-04-11T02:08:41.955Z,3.218688
2018-04-11T02:08:54.125Z,3.218688
2018-04-11T02:09:06.281Z,3.218688
2018-04-11T02:09:18.438Z,4.828032
2018-04-11T02:09:30.597Z,8.04672
2018-04-11T02:09:43.142Z,8.04672
2018-04-11T02:09:55.461Z,8.04672
2018-04-11T02:10:07.644Z,3.218688
2018-04-11T02:10:19.818Z,3.218688
2018-04-11T02:10:31.981Z,3.218688
2018-04-11T02:10:44.144Z,6.437376
2018-04-11T02:10:56.310Z,6.437376
2018-04-11T02:11:08.534Z,6.437376
2018-04-11T02:11:20.688Z,8.04672
2018-04-11T02:11:32.857Z,8.04672
2018-04-11T02:11:45.046Z,8.04672
2018-04-11T02:11:57.182Z,8.04672
2018-04-11T02:12:09.351Z,9.656064
2018-04-11T02:12:21.514Z,11.265408
2018-04-11T02:12:33.686Z,11.265408
2018-04-11T02:12:45.874Z,11.265408
2018-04-11T02:12:58.044Z,11.265408
2018-04-11T02:13:10.521Z,8.04672
2018-04-11T02:13:22.683Z,8.04672
2018-04-11T02:13:34.835Z,8.04672
2018-04-11T02:13:47.031Z,8.04672
2018-04-11T02:13:59.193Z,8.04672
2018-04-11T02:14:11.354Z,4.828032
2018-04-11T02:14:23.505Z,4.828032
2018-04-11T02:14:35.697Z,4.828032
2018-04-11T02:14:47.980Z,4.828032
2018-04-11T02:15:00.155Z,4.828032
2018-04-11T02:15:12.324Z,6.437376
2018-04-11T02:15:24.484Z,9.656064
2018-04-11T02:15:36.653Z,9.656064
2018-04-11T02:15:48.818Z,9.656064
2018-04-11T02:16:00.978Z,9.656064
2018-04-11T02:16:13.142Z,4.828032
2018-04-11T02:16:25.300Z,4.828032
2018-04-11T02:16:37.445Z,6.437376
2018-04-11T02:16:49.901Z,6.437376
2018-04-11T02:17:02.068Z,6.437376
2018-04-11T02:17:14.243Z,4.828032
2018-04-11T02:17:26.408Z,8.04672
2018-04-11T02:17:38.574Z,8.04672
2018-04-11T02:17:50.754Z,8.04672
2018-04-11T02:18:03.105Z,8.04672
2018-04-11T02:18:15.247Z,1.609344
2018-04-11T02:18:27.433Z,3.218688
2018-04-11T02:18:39.603Z,3.218688
2018-04-11T02:18:51.760Z,6.437376
2018-04-11T02:19:03.924Z,6.437376
2018-04-11T02:19:16.085Z,4.828032
2018-04-11T02:19:28.254Z,6.437376
2018-04-11T02:19:40.411Z,6.437376
2018-04-11T02:19:52.584Z,6.437376
2018-04-11T02:20:04.766Z,4.828032
2018-04-11T02:20:16.930Z,6.437376
2018-04-11T02:20:29.109Z,8.04672
2018-04-11T02:20:41.274Z,8.04672
2018-04-11T02:20:53.435Z,8.04672
2018-04-11T02:21:05.643Z,1.609344
2018-04-11T02:21:17.829Z,1.609344
2018-04-11T02:21:29.992Z,1.609344
2018-04-11T02:21:42.157Z,1.609344
2018-04-11T02:21:54.341Z,4.828032
2018-04-11T02:22:06.520Z,3.218688
2018-04-11T02:22:18.679Z,8.04672
2018-04-11T02:22:30.845Z,8.04672
2018-04-11T02:22:42.997Z,8.04672
2018-04-11T02:22:55.158Z,8.04672
2018-04-11T02:23:07.337Z,3.218688
2018-04-11T02:23:19.519Z,3.218688
2018-04-11T02:23:31.681Z,3.218688